Aeroporto :
LOGIN :

Iscrizione | Disclaimer

   EN    FR    IT 

 










Sommario :    VFR   VFR Marginale   IFR   IFR Intensivo   IFR Molto Intensivo
Visibilità : 
Base nubi : 
>= 8 km
>= 3000ft
5 / 8 km
1000 / 3000 ft
1500m / 5 km
500 / 1000 ft
800 / 1500m
200 / 500 ft
< 800m
< 200 ft
Simboli :   Temporali  Nebbia  Neve Forte  Precipitazioni Forti  Vento > 20 kt
SIGMETs :   Varie  Temporali  Ghiacco  Turbolenza  Onda orograficha  Ceneri Vulcaniche






- Altitudine del aeroporto : 2265 ft
- Codice IATA : CZL


DABC - Mohamed Boudiaf Int. Constantine

ULTIMO METAR :
  • 291600Z 28010KT 9999 FEW023 SCT030 12/08 Q1015

METARs OBSOLETI :
  • 291500Z 32010KT 9999 FEW023 SCT030 14/08 Q1014
  • 291400Z 33012KT 9999 FEW023 SCT030 14/08 Q1013
  • 291300Z 32011KT 9999 FEW020 BKN026 13/09 Q1013

TAF TAF DABC
Valido dal 29 a 12 ore il 30 a 12 ore UTC


291100Z 2912/3012 28013KT 8000 SCT016 BKN020
PROB40
TEMPO 2912/2918 28015G25KT 4000 -TSRA FEW020CB
BECMG 2920/2922 20008KT



MetMap, La meteo Aeronautica in un colpo d'occhio ! - Copyright ORBIFLY Dicembre 2007 - Disclaimer

ORBIFLY MET'MAP TEAM :

Programmazione e sviluppo : Alexandra Zaïnal
Concezione : Baudouin d'Aumeries
Aiuto per la programmazione : Marc-Olivier Méhu
Supporto tecnico e logistico : Manuel Goepfert
Aiuto per la traduzione : Arnaldo La Scala

Contatto : metmap@orbifly.com




FONTI E CREDITI :

   NOAA